sensor_id;sensor_type;location;lat;lon;timestamp;temperature;humidity
48912;DHT22;34722;52.108;5.044;2023-03-14T00:01:22;10.60;99.90
48912;DHT22;34722;52.108;5.044;2023-03-14T00:03:49;10.70;99.90
48912;DHT22;34722;52.108;5.044;2023-03-14T00:06:16;10.80;99.90
48912;DHT22;34722;52.108;5.044;2023-03-14T00:08:43;10.80;99.90
48912;DHT22;34722;52.108;5.044;2023-03-14T00:11:14;10.80;99.90
48912;DHT22;34722;52.108;5.044;2023-03-14T00:13:40;10.80;99.90
48912;DHT22;34722;52.108;5.044;2023-03-14T00:16:12;10.80;99.90
48912;DHT22;34722;52.108;5.044;2023-03-14T00:18:38;10.70;99.90
48912;DHT22;34722;52.108;5.044;2023-03-14T00:21:06;10.60;99.90
48912;DHT22;34722;52.108;5.044;2023-03-14T00:23:32;10.50;99.90
48912;DHT22;34722;52.108;5.044;2023-03-14T00:26:07;10.40;99.90
48912;DHT22;34722;52.108;5.044;2023-03-14T00:28:33;10.30;99.90
48912;DHT22;34722;52.108;5.044;2023-03-14T00:31:02;10.30;99.90
48912;DHT22;34722;52.108;5.044;2023-03-14T00:33:28;10.30;99.90
48912;DHT22;34722;52.108;5.044;2023-03-14T00:36:05;10.40;99.90
48912;DHT22;34722;52.108;5.044;2023-03-14T00:38:32;10.40;99.90
48912;DHT22;34722;52.108;5.044;2023-03-14T00:40:58;10.50;99.90
48912;DHT22;34722;52.108;5.044;2023-03-14T00:43:24;10.50;99.90
48912;DHT22;34722;52.108;5.044;2023-03-14T00:45:51;10.50;99.90
48912;DHT22;34722;52.108;5.044;2023-03-14T00:48:18;10.60;99.90
48912;DHT22;34722;52.108;5.044;2023-03-14T00:50:45;10.60;99.90
48912;DHT22;34722;52.108;5.044;2023-03-14T00:53:11;10.50;99.90
48912;DHT22;34722;52.108;5.044;2023-03-14T00:55:39;10.50;99.90
48912;DHT22;34722;52.108;5.044;2023-03-14T00:58:05;10.50;99.90
48912;DHT22;34722;52.108;5.044;2023-03-14T01:00:31;10.30;99.90
48912;DHT22;34722;52.108;5.044;2023-03-14T01:02:57;10.20;99.90
48912;DHT22;34722;52.108;5.044;2023-03-14T01:05:24;10.20;99.90
48912;DHT22;34722;52.108;5.044;2023-03-14T01:07:49;10.10;99.90
48912;DHT22;34722;52.108;5.044;2023-03-14T01:10:16;10.10;99.90
48912;DHT22;34722;52.108;5.044;2023-03-14T01:12:42;10.00;99.90
48912;DHT22;34722;52.108;5.044;2023-03-14T01:15:08;10.00;99.90
48912;DHT22;34722;52.108;5.044;2023-03-14T01:17:37;10.00;99.90
48912;DHT22;34722;52.108;5.044;2023-03-14T01:20:07;9.90;99.90
48912;DHT22;34722;52.108;5.044;2023-03-14T01:22:38;9.80;99.90
48912;DHT22;34722;52.108;5.044;2023-03-14T01:25:18;9.80;99.90
48912;DHT22;34722;52.108;5.044;2023-03-14T01:27:45;9.70;99.90
48912;DHT22;34722;52.108;5.044;2023-03-14T01:30:12;9.70;99.90
48912;DHT22;34722;52.108;5.044;2023-03-14T01:32:38;9.70;99.90
48912;DHT22;34722;52.108;5.044;2023-03-14T01:35:04;9.70;99.90
48912;DHT22;34722;52.108;5.044;2023-03-14T01:37:29;9.80;99.90
48912;DHT22;34722;52.108;5.044;2023-03-14T01:39:55;9.70;99.90
48912;DHT22;34722;52.108;5.044;2023-03-14T01:42:21;9.80;99.90
48912;DHT22;34722;52.108;5.044;2023-03-14T01:44:58;9.80;99.90
48912;DHT22;34722;52.108;5.044;2023-03-14T01:47:24;9.80;99.90
48912;DHT22;34722;52.108;5.044;2023-03-14T01:49:56;9.80;99.90
48912;DHT22;34722;52.108;5.044;2023-03-14T01:52:29;9.80;99.90
48912;DHT22;34722;52.108;5.044;2023-03-14T01:55:20;9.80;99.90
48912;DHT22;34722;52.108;5.044;2023-03-14T01:57:58;9.80;99.90
48912;DHT22;34722;52.108;5.044;2023-03-14T02:00:25;9.90;99.90
48912;DHT22;34722;52.108;5.044;2023-03-14T02:02:59;9.90;99.90
48912;DHT22;34722;52.108;5.044;2023-03-14T02:05:33;9.90;99.90
48912;DHT22;34722;52.108;5.044;2023-03-14T02:08:04;9.90;99.90
48912;DHT22;34722;52.108;5.044;2023-03-14T02:10:34;9.90;99.90
48912;DHT22;34722;52.108;5.044;2023-03-14T02:13:04;9.90;99.90
48912;DHT22;34722;52.108;5.044;2023-03-14T02:15:31;9.90;99.90
48912;DHT22;34722;52.108;5.044;2023-03-14T02:17:58;9.90;99.90
48912;DHT22;34722;52.108;5.044;2023-03-14T02:20:36;9.90;99.90
48912;DHT22;34722;52.108;5.044;2023-03-14T02:23:07;9.90;99.90
48912;DHT22;34722;52.108;5.044;2023-03-14T02:28:11;9.80;99.90
48912;DHT22;34722;52.108;5.044;2023-03-14T02:30:40;9.80;99.90
48912;DHT22;34722;52.108;5.044;2023-03-14T02:33:16;9.80;99.90
48912;DHT22;34722;52.108;5.044;2023-03-14T02:35:47;9.70;99.90
48912;DHT22;34722;52.108;5.044;2023-03-14T02:38:30;9.70;99.90
48912;DHT22;34722;52.108;5.044;2023-03-14T02:41:28;9.70;99.90
48912;DHT22;34722;52.108;5.044;2023-03-14T02:44:08;9.70;99.90
48912;DHT22;34722;52.108;5.044;2023-03-14T02:46:34;9.70;99.90
48912;DHT22;34722;52.108;5.044;2023-03-14T02:58:51;9.70;99.90
48912;DHT22;34722;52.108;5.044;2023-03-14T03:07:41;9.70;99.90
48912;DHT22;34722;52.108;5.044;2023-03-14T03:10:07;9.70;99.90
48912;DHT22;34722;52.108;5.044;2023-03-14T03:12:37;9.70;99.90
48912;DHT22;34722;52.108;5.044;2023-03-14T03:15:04;9.70;99.90
48912;DHT22;34722;52.108;5.044;2023-03-14T03:17:30;9.70;99.90
48912;DHT22;34722;52.108;5.044;2023-03-14T03:26:36;9.70;99.90
48912;DHT22;34722;52.108;5.044;2023-03-14T03:29:02;9.70;99.90
48912;DHT22;34722;52.108;5.044;2023-03-14T03:31:28;9.70;99.90
48912;DHT22;34722;52.108;5.044;2023-03-14T03:33:54;9.70;99.90
48912;DHT22;34722;52.108;5.044;2023-03-14T03:36:31;9.70;99.90
48912;DHT22;34722;52.108;5.044;2023-03-14T03:38:57;9.70;99.90
48912;DHT22;34722;52.108;5.044;2023-03-14T03:41:22;9.70;99.90
48912;DHT22;34722;52.108;5.044;2023-03-14T03:43:49;9.60;99.90
48912;DHT22;34722;52.108;5.044;2023-03-14T03:46:15;9.70;99.90
48912;DHT22;34722;52.108;5.044;2023-03-14T03:48:41;9.70;99.90
48912;DHT22;34722;52.108;5.044;2023-03-14T03:51:15;9.70;99.90
48912;DHT22;34722;52.108;5.044;2023-03-14T03:53:42;9.70;99.90
48912;DHT22;34722;52.108;5.044;2023-03-14T03:56:11;9.70;99.90
48912;DHT22;34722;52.108;5.044;2023-03-14T03:58:44;9.70;99.90
48912;DHT22;34722;52.108;5.044;2023-03-14T04:01:49;9.80;99.90
48912;DHT22;34722;52.108;5.044;2023-03-14T04:10:36;9.80;99.90
48912;DHT22;34722;52.108;5.044;2023-03-14T04:13:04;9.90;99.90
48912;DHT22;34722;52.108;5.044;2023-03-14T04:15:30;9.90;99.90
48912;DHT22;34722;52.108;5.044;2023-03-14T04:17:59;9.90;99.90
48912;DHT22;34722;52.108;5.044;2023-03-14T04:20:25;9.90;99.90
48912;DHT22;34722;52.108;5.044;2023-03-14T04:22:51;9.90;99.90
48912;DHT22;34722;52.108;5.044;2023-03-14T04:25:17;9.80;99.90
48912;DHT22;34722;52.108;5.044;2023-03-14T04:27:45;9.90;99.90
48912;DHT22;34722;52.108;5.044;2023-03-14T04:30:14;9.90;99.90
48912;DHT22;34722;52.108;5.044;2023-03-14T04:32:39;9.90;99.90
48912;DHT22;34722;52.108;5.044;2023-03-14T04:35:06;9.90;99.90
48912;DHT22;34722;52.108;5.044;2023-03-14T04:37:32;9.80;99.90
48912;DHT22;34722;52.108;5.044;2023-03-14T04:39:58;9.90;99.90
48912;DHT22;34722;52.108;5.044;2023-03-14T04:42:24;9.90;99.90
48912;DHT22;34722;52.108;5.044;2023-03-14T04:44:49;9.90;99.90
48912;DHT22;34722;52.108;5.044;2023-03-14T04:47:34;9.90;99.90
48912;DHT22;34722;52.108;5.044;2023-03-14T04:50:00;9.80;99.90
48912;DHT22;34722;52.108;5.044;2023-03-14T04:52:38;9.70;99.90
48912;DHT22;34722;52.108;5.044;2023-03-14T04:55:17;9.60;99.90
48912;DHT22;34722;52.108;5.044;2023-03-14T04:57:43;9.60;99.90
48912;DHT22;34722;52.108;5.044;2023-03-14T05:00:12;9.60;99.90
48912;DHT22;34722;52.108;5.044;2023-03-14T05:02:42;9.50;99.90
48912;DHT22;34722;52.108;5.044;2023-03-14T05:05:08;9.50;99.90
48912;DHT22;34722;52.108;5.044;2023-03-14T05:07:34;9.50;99.90
48912;DHT22;34722;52.108;5.044;2023-03-14T05:10:06;9.40;99.90
48912;DHT22;34722;52.108;5.044;2023-03-14T05:12:31;9.40;99.90
48912;DHT22;34722;52.108;5.044;2023-03-14T05:15:06;9.40;99.90
48912;DHT22;34722;52.108;5.044;2023-03-14T05:17:38;9.40;99.90
48912;DHT22;34722;52.108;5.044;2023-03-14T05:20:11;9.40;99.90
48912;DHT22;34722;52.108;5.044;2023-03-14T05:28:04;9.40;99.90
48912;DHT22;34722;52.108;5.044;2023-03-14T05:30:30;9.40;99.90
48912;DHT22;34722;52.108;5.044;2023-03-14T05:32:59;9.40;99.90
48912;DHT22;34722;52.108;5.044;2023-03-14T05:35:25;9.30;99.90
48912;DHT22;34722;52.108;5.044;2023-03-14T05:37:51;9.30;99.90
48912;DHT22;34722;52.108;5.044;2023-03-14T05:40:20;9.40;99.90
48912;DHT22;34722;52.108;5.044;2023-03-14T05:42:49;9.30;99.90
48912;DHT22;34722;52.108;5.044;2023-03-14T05:45:15;9.40;99.90
48912;DHT22;34722;52.108;5.044;2023-03-14T05:47:41;9.40;99.90
48912;DHT22;34722;52.108;5.044;2023-03-14T05:50:07;9.40;99.90
48912;DHT22;34722;52.108;5.044;2023-03-14T05:52:36;9.30;99.90
48912;DHT22;34722;52.108;5.044;2023-03-14T06:34:26;8.30;99.90
48912;DHT22;34722;52.108;5.044;2023-03-14T06:36:56;8.20;99.90
48912;DHT22;34722;52.108;5.044;2023-03-14T06:39:23;8.20;99.90
48912;DHT22;34722;52.108;5.044;2023-03-14T06:41:49;8.20;99.90
48912;DHT22;34722;52.108;5.044;2023-03-14T06:44:15;8.20;99.90
48912;DHT22;34722;52.108;5.044;2023-03-14T06:46:47;8.10;99.90
48912;DHT22;34722;52.108;5.044;2023-03-14T06:49:16;8.10;99.90
48912;DHT22;34722;52.108;5.044;2023-03-14T06:51:42;8.10;99.90
48912;DHT22;34722;52.108;5.044;2023-03-14T06:54:46;8.10;99.90
48912;DHT22;34722;52.108;5.044;2023-03-14T06:57:18;8.00;99.90
48912;DHT22;34722;52.108;5.044;2023-03-14T07:00:09;8.10;99.90
48912;DHT22;34722;52.108;5.044;2023-03-14T07:12:14;8.00;99.90
48912;DHT22;34722;52.108;5.044;2023-03-14T07:14:40;7.90;99.90
48912;DHT22;34722;52.108;5.044;2023-03-14T07:17:06;8.00;99.90
48912;DHT22;34722;52.108;5.044;2023-03-14T07:19:31;7.90;99.90
48912;DHT22;34722;52.108;5.044;2023-03-14T07:21:57;7.80;99.90
48912;DHT22;34722;52.108;5.044;2023-03-14T07:24:23;7.80;99.90
48912;DHT22;34722;52.108;5.044;2023-03-14T07:26:49;7.80;99.90
48912;DHT22;34722;52.108;5.044;2023-03-14T07:29:15;7.70;99.90
48912;DHT22;34722;52.108;5.044;2023-03-14T07:31:44;7.80;99.90
48912;DHT22;34722;52.108;5.044;2023-03-14T07:34:09;7.70;99.90
48912;DHT22;34722;52.108;5.044;2023-03-14T07:36:36;7.80;99.90
48912;DHT22;34722;52.108;5.044;2023-03-14T07:39:05;7.80;99.90
48912;DHT22;34722;52.108;5.044;2023-03-14T07:41:31;7.80;99.90
48912;DHT22;34722;52.108;5.044;2023-03-14T07:43:57;7.90;99.90
48912;DHT22;34722;52.108;5.044;2023-03-14T07:46:22;7.90;99.90
48912;DHT22;34722;52.108;5.044;2023-03-14T07:48:48;7.90;99.90
48912;DHT22;34722;52.108;5.044;2023-03-14T07:51:14;7.80;99.90
48912;DHT22;34722;52.108;5.044;2023-03-14T07:53:40;7.80;99.90
48912;DHT22;34722;52.108;5.044;2023-03-14T07:56:06;7.70;99.90
48912;DHT22;34722;52.108;5.044;2023-03-14T07:58:32;7.70;99.90
48912;DHT22;34722;52.108;5.044;2023-03-14T08:00:58;7.60;99.90
48912;DHT22;34722;52.108;5.044;2023-03-14T08:03:24;7.50;99.90
48912;DHT22;34722;52.108;5.044;2023-03-14T08:05:50;7.50;99.90
48912;DHT22;34722;52.108;5.044;2023-03-14T08:08:17;7.40;99.90
48912;DHT22;34722;52.108;5.044;2023-03-14T08:10:43;6.90;99.90
48912;DHT22;34722;52.108;5.044;2023-03-14T08:13:09;6.70;99.90
48912;DHT22;34722;52.108;5.044;2023-03-14T08:15:35;6.50;99.90
48912;DHT22;34722;52.108;5.044;2023-03-14T08:18:02;6.50;99.90
48912;DHT22;34722;52.108;5.044;2023-03-14T08:20:29;6.50;99.90
48912;DHT22;34722;52.108;5.044;2023-03-14T08:22:59;6.50;99.90
48912;DHT22;34722;52.108;5.044;2023-03-14T08:25:28;6.50;99.90
48912;DHT22;34722;52.108;5.044;2023-03-14T08:27:54;6.50;99.90
48912;DHT22;34722;52.108;5.044;2023-03-14T08:30:21;6.40;99.90
48912;DHT22;34722;52.108;5.044;2023-03-14T08:32:50;6.50;99.90
48912;DHT22;34722;52.108;5.044;2023-03-14T08:35:19;6.60;99.90
48912;DHT22;34722;52.108;5.044;2023-03-14T08:37:45;6.50;99.90
48912;DHT22;34722;52.108;5.044;2023-03-14T08:40:14;6.50;99.90
48912;DHT22;34722;52.108;5.044;2023-03-14T08:42:40;6.60;99.90
48912;DHT22;34722;52.108;5.044;2023-03-14T08:45:07;6.80;99.90
48912;DHT22;34722;52.108;5.044;2023-03-14T08:47:33;7.00;99.90
48912;DHT22;34722;52.108;5.044;2023-03-14T08:50:01;7.20;99.90
48912;DHT22;34722;52.108;5.044;2023-03-14T08:52:33;7.60;99.90
48912;DHT22;34722;52.108;5.044;2023-03-14T08:55:09;7.90;99.90
48912;DHT22;34722;52.108;5.044;2023-03-14T08:57:45;8.00;99.90
48912;DHT22;34722;52.108;5.044;2023-03-14T09:00:52;7.90;99.90
48912;DHT22;34722;52.108;5.044;2023-03-14T09:03:24;7.90;99.90
48912;DHT22;34722;52.108;5.044;2023-03-14T09:05:53;7.90;99.90
48912;DHT22;34722;52.108;5.044;2023-03-14T09:08:26;7.90;99.90
48912;DHT22;34722;52.108;5.044;2023-03-14T09:10:51;7.70;99.90
48912;DHT22;34722;52.108;5.044;2023-03-14T09:13:28;7.80;99.90
48912;DHT22;34722;52.108;5.044;2023-03-14T09:15:57;7.80;99.90
48912;DHT22;34722;52.108;5.044;2023-03-14T09:18:24;8.10;99.90
48912;DHT22;34722;52.108;5.044;2023-03-14T09:20:53;8.40;99.90
48912;DHT22;34722;52.108;5.044;2023-03-14T09:23:24;8.40;99.90
48912;DHT22;34722;52.108;5.044;2023-03-14T09:25:55;8.10;99.90
48912;DHT22;34722;52.108;5.044;2023-03-14T09:28:21;7.90;99.90
48912;DHT22;34722;52.108;5.044;2023-03-14T09:31:06;8.00;99.90
48912;DHT22;34722;52.108;5.044;2023-03-14T09:33:33;7.90;99.90
48912;DHT22;34722;52.108;5.044;2023-03-14T09:35:59;7.90;99.90
48912;DHT22;34722;52.108;5.044;2023-03-14T09:38:25;8.00;99.90
48912;DHT22;34722;52.108;5.044;2023-03-14T09:40:52;8.00;99.90
48912;DHT22;34722;52.108;5.044;2023-03-14T09:43:19;8.10;99.90
48912;DHT22;34722;52.108;5.044;2023-03-14T09:45:47;8.20;99.90
48912;DHT22;34722;52.108;5.044;2023-03-14T09:48:22;8.10;99.90
48912;DHT22;34722;52.108;5.044;2023-03-14T09:50:51;8.10;99.90
48912;DHT22;34722;52.108;5.044;2023-03-14T09:53:32;8.00;99.90
48912;DHT22;34722;52.108;5.044;2023-03-14T09:56:01;8.10;99.90
48912;DHT22;34722;52.108;5.044;2023-03-14T09:58:27;8.00;99.90
48912;DHT22;34722;52.108;5.044;2023-03-14T10:00:55;8.00;99.90
48912;DHT22;34722;52.108;5.044;2023-03-14T10:03:31;7.80;99.90
48912;DHT22;34722;52.108;5.044;2023-03-14T10:06:13;7.10;99.90
48912;DHT22;34722;52.108;5.044;2023-03-14T10:08:43;7.00;99.90
48912;DHT22;34722;52.108;5.044;2023-03-14T10:11:17;7.00;99.90
48912;DHT22;34722;52.108;5.044;2023-03-14T10:13:49;6.80;99.90
48912;DHT22;34722;52.108;5.044;2023-03-14T10:16:15;6.70;99.90
48912;DHT22;34722;52.108;5.044;2023-03-14T10:18:45;6.70;99.90
48912;DHT22;34722;52.108;5.044;2023-03-14T10:21:29;6.90;99.90
48912;DHT22;34722;52.108;5.044;2023-03-14T10:23:55;7.20;99.90
48912;DHT22;34722;52.108;5.044;2023-03-14T10:26:34;7.70;99.90
48912;DHT22;34722;52.108;5.044;2023-03-14T10:29:09;7.80;99.90
48912;DHT22;34722;52.108;5.044;2023-03-14T10:31:54;8.00;99.90
48912;DHT22;34722;52.108;5.044;2023-03-14T10:34:32;8.20;99.90
48912;DHT22;34722;52.108;5.044;2023-03-14T10:37:04;8.40;99.90
48912;DHT22;34722;52.108;5.044;2023-03-14T10:39:51;8.60;99.90
48912;DHT22;34722;52.108;5.044;2023-03-14T10:42:28;8.80;99.90
48912;DHT22;34722;52.108;5.044;2023-03-14T10:45:02;8.50;99.90
48912;DHT22;34722;52.108;5.044;2023-03-14T10:47:28;7.90;99.90
48912;DHT22;34722;52.108;5.044;2023-03-14T10:49:56;7.60;99.90
48912;DHT22;34722;52.108;5.044;2023-03-14T10:52:27;7.40;99.90
48912;DHT22;34722;52.108;5.044;2023-03-14T10:55:08;7.40;99.90
48912;DHT22;34722;52.108;5.044;2023-03-14T10:57:39;7.50;99.90
48912;DHT22;34722;52.108;5.044;2023-03-14T11:00:09;7.60;99.90
48912;DHT22;34722;52.108;5.044;2023-03-14T11:02:58;7.70;99.90
48912;DHT22;34722;52.108;5.044;2023-03-14T11:05:40;8.10;99.90
48912;DHT22;34722;52.108;5.044;2023-03-14T11:08:17;9.00;97.40
48912;DHT22;34722;52.108;5.044;2023-03-14T11:10:48;10.90;1.00
48912;DHT22;34722;52.108;5.044;2023-03-14T11:19:11;16.60;1.00
48912;DHT22;34722;52.108;5.044;2023-03-14T11:27:25;16.50;1.00
48912;DHT22;34722;52.108;5.044;2023-03-14T11:30:01;15.90;1.00
48912;DHT22;34722;52.108;5.044;2023-03-14T11:32:42;16.70;1.00
48912;DHT22;34722;52.108;5.044;2023-03-14T11:38:40;18.80;1.00
48912;DHT22;34722;52.108;5.044;2023-03-14T11:41:14;18.00;99.90
48912;DHT22;34722;52.108;5.044;2023-03-14T11:43:40;17.00;99.90
48912;DHT22;34722;52.108;5.044;2023-03-14T11:46:35;16.90;99.90
48912;DHT22;34722;52.108;5.044;2023-03-14T11:51:55;15.80;99.90
48912;DHT22;34722;52.108;5.044;2023-03-14T11:54:38;14.80;99.90
48912;DHT22;34722;52.108;5.044;2023-03-14T11:57:15;14.70;99.90
48912;DHT22;34722;52.108;5.044;2023-03-14T11:59:45;15.70;99.90
48912;DHT22;34722;52.108;5.044;2023-03-14T12:10:43;14.00;99.90
48912;DHT22;34722;52.108;5.044;2023-03-14T12:13:12;13.50;99.90
48912;DHT22;34722;52.108;5.044;2023-03-14T12:15:50;13.00;99.90
48912;DHT22;34722;52.108;5.044;2023-03-14T12:18:24;13.10;99.90
48912;DHT22;34722;52.108;5.044;2023-03-14T12:20:57;14.00;99.90
48912;DHT22;34722;52.108;5.044;2023-03-14T12:23:23;15.30;99.90
48912;DHT22;34722;52.108;5.044;2023-03-14T12:26:07;16.30;99.90
48912;DHT22;34722;52.108;5.044;2023-03-14T12:28:33;16.80;99.90
48912;DHT22;34722;52.108;5.044;2023-03-14T12:34:24;16.30;99.90
48912;DHT22;34722;52.108;5.044;2023-03-14T12:37:05;16.20;99.90
48912;DHT22;34722;52.108;5.044;2023-03-14T12:44:48;15.10;99.90
48912;DHT22;34722;52.108;5.044;2023-03-14T12:49:44;15.30;99.90
48912;DHT22;34722;52.108;5.044;2023-03-14T12:52:17;15.30;99.90
48912;DHT22;34722;52.108;5.044;2023-03-14T12:55:15;14.40;99.90
48912;DHT22;34722;52.108;5.044;2023-03-14T13:00:29;12.80;99.90
48912;DHT22;34722;52.108;5.044;2023-03-14T13:03:11;12.00;99.90
48912;DHT22;34722;52.108;5.044;2023-03-14T13:05:55;11.10;99.90
48912;DHT22;34722;52.108;5.044;2023-03-14T13:08:40;10.90;99.90
48912;DHT22;34722;52.108;5.044;2023-03-14T13:11:10;11.00;99.90
48912;DHT22;34722;52.108;5.044;2023-03-14T13:13:45;10.50;99.90
48912;DHT22;34722;52.108;5.044;2023-03-14T13:16:19;10.80;99.90
48912;DHT22;34722;52.108;5.044;2023-03-14T13:18:47;11.00;99.90
48912;DHT22;34722;52.108;5.044;2023-03-14T13:21:19;11.00;99.90
48912;DHT22;34722;52.108;5.044;2023-03-14T13:24:02;10.70;99.90
48912;DHT22;34722;52.108;5.044;2023-03-14T13:26:41;10.50;99.90
48912;DHT22;34722;52.108;5.044;2023-03-14T13:29:21;10.40;99.90
48912;DHT22;34722;52.108;5.044;2023-03-14T13:31:53;10.20;99.90
48912;DHT22;34722;52.108;5.044;2023-03-14T13:34:20;10.20;99.90
48912;DHT22;34722;52.108;5.044;2023-03-14T13:36:46;10.20;99.90
48912;DHT22;34722;52.108;5.044;2023-03-14T13:39:20;10.10;99.90
48912;DHT22;34722;52.108;5.044;2023-03-14T13:41:47;10.10;99.90
48912;DHT22;34722;52.108;5.044;2023-03-14T13:44:17;10.30;99.90
48912;DHT22;34722;52.108;5.044;2023-03-14T13:46:46;9.90;99.90
48912;DHT22;34722;52.108;5.044;2023-03-14T13:49:21;9.40;99.90
48912;DHT22;34722;52.108;5.044;2023-03-14T13:51:52;9.20;99.90
48912;DHT22;34722;52.108;5.044;2023-03-14T13:54:20;9.00;99.90
48912;DHT22;34722;52.108;5.044;2023-03-14T13:56:46;8.90;99.90
48912;DHT22;34722;52.108;5.044;2023-03-14T13:59:34;8.80;99.90
48912;DHT22;34722;52.108;5.044;2023-03-14T14:02:13;8.70;99.90
48912;DHT22;34722;52.108;5.044;2023-03-14T14:04:40;8.50;99.90
48912;DHT22;34722;52.108;5.044;2023-03-14T14:07:27;8.60;99.90
48912;DHT22;34722;52.108;5.044;2023-03-14T14:09:57;8.70;99.90
48912;DHT22;34722;52.108;5.044;2023-03-14T14:26:29;8.40;99.90
48912;DHT22;34722;52.108;5.044;2023-03-14T14:45:46;7.50;99.90
48912;DHT22;34722;52.108;5.044;2023-03-14T15:06:22;8.10;99.90
48912;DHT22;34722;52.108;5.044;2023-03-14T15:08:57;8.10;99.90
48912;DHT22;34722;52.108;5.044;2023-03-14T15:11:25;8.10;99.90
48912;DHT22;34722;52.108;5.044;2023-03-14T15:13:52;8.10;99.90
48912;DHT22;34722;52.108;5.044;2023-03-14T15:16:31;8.10;99.90
48912;DHT22;34722;52.108;5.044;2023-03-14T15:19:26;8.00;99.90
48912;DHT22;34722;52.108;5.044;2023-03-14T15:21:58;8.00;99.90
48912;DHT22;34722;52.108;5.044;2023-03-14T15:24:25;8.10;99.90
48912;DHT22;34722;52.108;5.044;2023-03-14T15:26:56;8.00;99.90
48912;DHT22;34722;52.108;5.044;2023-03-14T15:29:22;8.00;99.90
48912;DHT22;34722;52.108;5.044;2023-03-14T15:31:54;7.90;99.90
48912;DHT22;34722;52.108;5.044;2023-03-14T15:34:20;7.80;99.90
48912;DHT22;34722;52.108;5.044;2023-03-14T15:36:46;7.90;99.90
48912;DHT22;34722;52.108;5.044;2023-03-14T15:39:19;7.90;99.90
48912;DHT22;34722;52.108;5.044;2023-03-14T15:41:45;7.90;99.90
48912;DHT22;34722;52.108;5.044;2023-03-14T15:44:22;7.80;99.90
48912;DHT22;34722;52.108;5.044;2023-03-14T15:46:51;7.80;99.90
48912;DHT22;34722;52.108;5.044;2023-03-14T15:49:22;7.70;99.90
48912;DHT22;34722;52.108;5.044;2023-03-14T15:51:58;7.60;99.90
48912;DHT22;34722;52.108;5.044;2023-03-14T15:54:29;7.60;99.90
48912;DHT22;34722;52.108;5.044;2023-03-14T15:57:00;7.50;99.90
48912;DHT22;34722;52.108;5.044;2023-03-14T15:59:37;7.50;99.90
48912;DHT22;34722;52.108;5.044;2023-03-14T16:02:03;7.50;99.90
48912;DHT22;34722;52.108;5.044;2023-03-14T16:04:32;7.40;99.90
48912;DHT22;34722;52.108;5.044;2023-03-14T16:07:01;7.40;99.90
48912;DHT22;34722;52.108;5.044;2023-03-14T16:09:39;7.40;1.00
48912;DHT22;34722;52.108;5.044;2023-03-14T16:12:05;7.30;1.00
48912;DHT22;34722;52.108;5.044;2023-03-14T16:14:33;7.30;1.00
48912;DHT22;34722;52.108;5.044;2023-03-14T16:17:11;7.30;1.00
48912;DHT22;34722;52.108;5.044;2023-03-14T16:19:39;7.30;1.00
48912;DHT22;34722;52.108;5.044;2023-03-14T16:22:08;7.40;1.00
48912;DHT22;34722;52.108;5.044;2023-03-14T16:24:43;7.40;99.90
48912;DHT22;34722;52.108;5.044;2023-03-14T16:27:09;7.30;99.90
48912;DHT22;34722;52.108;5.044;2023-03-14T16:29:34;7.20;99.90
48912;DHT22;34722;52.108;5.044;2023-03-14T16:32:00;7.10;99.90
48912;DHT22;34722;52.108;5.044;2023-03-14T16:34:26;7.00;99.90
48912;DHT22;34722;52.108;5.044;2023-03-14T16:36:51;6.80;99.90
48912;DHT22;34722;52.108;5.044;2023-03-14T16:39:17;6.70;99.90
48912;DHT22;34722;52.108;5.044;2023-03-14T16:41:44;6.70;99.90
48912;DHT22;34722;52.108;5.044;2023-03-14T16:44:09;6.70;99.90
48912;DHT22;34722;52.108;5.044;2023-03-14T16:46:35;6.70;99.90
48912;DHT22;34722;52.108;5.044;2023-03-14T16:49:02;6.60;99.90
48912;DHT22;34722;52.108;5.044;2023-03-14T16:51:28;6.60;99.90
48912;DHT22;34722;52.108;5.044;2023-03-14T16:53:53;6.60;99.90
48912;DHT22;34722;52.108;5.044;2023-03-14T16:56:19;6.60;99.90
48912;DHT22;34722;52.108;5.044;2023-03-14T16:58:45;6.60;99.90
48912;DHT22;34722;52.108;5.044;2023-03-14T17:01:45;6.60;1.00
48912;DHT22;34722;52.108;5.044;2023-03-14T17:04:30;6.50;1.00
48912;DHT22;34722;52.108;5.044;2023-03-14T17:06:56;6.50;1.00
48912;DHT22;34722;52.108;5.044;2023-03-14T17:09:21;6.40;1.00
48912;DHT22;34722;52.108;5.044;2023-03-14T17:11:47;6.30;1.00
48912;DHT22;34722;52.108;5.044;2023-03-14T17:14:12;6.20;1.00
48912;DHT22;34722;52.108;5.044;2023-03-14T17:16:38;6.10;1.00
48912;DHT22;34722;52.108;5.044;2023-03-14T17:19:04;6.10;1.00
48912;DHT22;34722;52.108;5.044;2023-03-14T17:21:29;5.90;1.00
48912;DHT22;34722;52.108;5.044;2023-03-14T17:23:56;5.80;1.00
48912;DHT22;34722;52.108;5.044;2023-03-14T17:26:34;5.70;1.00
48912;DHT22;34722;52.108;5.044;2023-03-14T17:28:59;5.60;1.00
48912;DHT22;34722;52.108;5.044;2023-03-14T17:31:25;5.50;34.90
48912;DHT22;34722;52.108;5.044;2023-03-14T17:33:51;5.50;99.90
48912;DHT22;34722;52.108;5.044;2023-03-14T17:36:17;5.40;99.90
48912;DHT22;34722;52.108;5.044;2023-03-14T17:38:46;5.40;99.90
48912;DHT22;34722;52.108;5.044;2023-03-14T17:41:13;5.40;99.90
48912;DHT22;34722;52.108;5.044;2023-03-14T17:43:40;5.30;1.00
48912;DHT22;34722;52.108;5.044;2023-03-14T17:46:10;5.20;99.90
48912;DHT22;34722;52.108;5.044;2023-03-14T17:48:41;5.20;99.90
48912;DHT22;34722;52.108;5.044;2023-03-14T17:51:07;5.20;1.00
48912;DHT22;34722;52.108;5.044;2023-03-14T17:53:34;5.10;99.90
48912;DHT22;34722;52.108;5.044;2023-03-14T17:56:02;5.10;99.90
48912;DHT22;34722;52.108;5.044;2023-03-14T17:58:30;5.10;99.90
48912;DHT22;34722;52.108;5.044;2023-03-14T18:00:57;5.00;99.90
48912;DHT22;34722;52.108;5.044;2023-03-14T18:03:31;4.90;99.90
48912;DHT22;34722;52.108;5.044;2023-03-14T18:05:57;4.90;99.90
48912;DHT22;34722;52.108;5.044;2023-03-14T18:08:23;4.70;99.90
48912;DHT22;34722;52.108;5.044;2023-03-14T18:10:52;4.80;99.90
48912;DHT22;34722;52.108;5.044;2023-03-14T18:13:25;4.70;99.90
48912;DHT22;34722;52.108;5.044;2023-03-14T18:15:52;4.60;99.90
48912;DHT22;34722;52.108;5.044;2023-03-14T18:18:18;4.50;99.90
48912;DHT22;34722;52.108;5.044;2023-03-14T18:20:51;4.50;99.90
48912;DHT22;34722;52.108;5.044;2023-03-14T18:23:19;4.40;99.90
48912;DHT22;34722;52.108;5.044;2023-03-14T18:25:51;4.40;99.90
48912;DHT22;34722;52.108;5.044;2023-03-14T18:28:18;4.40;99.90
48912;DHT22;34722;52.108;5.044;2023-03-14T18:30:48;4.40;99.90
48912;DHT22;34722;52.108;5.044;2023-03-14T18:33:22;4.30;99.90
48912;DHT22;34722;52.108;5.044;2023-03-14T18:36:07;4.20;99.90
48912;DHT22;34722;52.108;5.044;2023-03-14T18:38:40;4.10;1.00
48912;DHT22;34722;52.108;5.044;2023-03-14T18:41:15;4.00;1.00
48912;DHT22;34722;52.108;5.044;2023-03-14T18:43:45;3.90;64.80
48912;DHT22;34722;52.108;5.044;2023-03-14T18:46:11;3.80;99.90
48912;DHT22;34722;52.108;5.044;2023-03-14T18:48:38;3.80;99.90
48912;DHT22;34722;52.108;5.044;2023-03-14T18:51:07;3.70;99.90
48912;DHT22;34722;52.108;5.044;2023-03-14T18:53:33;3.70;1.00
48912;DHT22;34722;52.108;5.044;2023-03-14T18:56:00;3.60;1.00
48912;DHT22;34722;52.108;5.044;2023-03-14T18:58:27;3.50;79.10
48912;DHT22;34722;52.108;5.044;2023-03-14T19:01:01;3.40;99.90